Time;durP1;ratioP1;P1;durP2;ratioP2;P2;SDS_P1;SDS_P2;PMS_P1;PMS_P2;Temp;Humidity;BMP_temperature;BMP_pressure;BME280_temperature;BME280_humidity;BME280_pressure;Samples;Min_cycle;Max_cycle;Signal;HPM_P1;HPM_P2
2023/03/06 00:01:17;;;;;;;6.72;1.95;;;;;;;-4.38;70.04;97815.28;4975393;28;20057;-77
2023/03/06 00:03:43;;;;;;;3.30;1.75;;;;;;;-4.48;70.02;97811.38;4957680;28;20050;-76
2023/03/06 00:06:09;;;;;;;3.30;1.58;;;;;;;-4.47;70.08;97819.16;4974599;28;20058;-76
2023/03/06 00:08:35;;;;;;;6.45;1.35;;;;;;;-4.51;70.17;97814.16;4941220;28;20043;-75
2023/03/06 00:11:00;;;;;;;1.92;1.77;;;;;;;-4.58;70.06;97810.09;4973329;28;20042;-76
2023/03/06 00:13:28;;;;;;;1.70;1.38;;;;;;;-4.56;70.19;97824.75;4974728;28;20038;-76
2023/03/06 00:15:58;;;;;;;2.15;1.95;;;;;;;-4.60;70.08;97814.53;4973288;28;20050;-76
2023/03/06 00:18:24;;;;;;;;;;;;;;;-4.58;70.14;97825.75;4973743;28;20070;-75
2023/03/06 00:20:52;;;;;;;1.88;1.60;;;;;;;-4.73;69.99;97828.09;4974530;28;19928;-76
2023/03/06 00:23:18;;;;;;;3.60;1.70;;;;;;;-4.73;70.11;97833.31;4973301;28;20042;-76
2023/03/06 00:25:44;;;;;;;1.67;1.58;;;;;;;-4.75;70.21;97834.28;4974886;28;20513;-76
2023/03/06 00:28:14;;;;;;;11.02;1.90;;;;;;;-4.82;69.96;97838.06;4957287;28;20047;-77
2023/03/06 00:30:40;;;;;;;5.03;1.80;;;;;;;-4.85;70.59;97838.19;4974374;28;20501;-75
2023/03/06 00:33:07;;;;;;;1.88;1.77;;;;;;;-4.95;70.49;97838.59;4941215;28;20046;-75
2023/03/06 00:35:32;;;;;;;1.70;1.50;;;;;;;-4.98;70.72;97843.91;4974558;28;20049;-77
2023/03/06 00:37:58;;;;;;;1.85;1.75;;;;;;;-5.04;71.11;97838.09;4973293;28;20483;-76
2023/03/06 00:40:26;;;;;;;2.47;1.95;;;;;;;-5.00;70.70;97839.66;4972782;28;20141;-75
2023/03/06 00:42:52;;;;;;;1.58;1.48;;;;;;;-5.09;71.06;97840.06;4957168;28;20046;-76
2023/03/06 00:45:18;;;;;;;2.75;1.63;;;;;;;-5.08;70.81;97849.56;4957498;28;20050;-75
2023/03/06 00:47:44;;;;;;;2.08;1.85;;;;;;;-5.12;71.08;97862.72;4974262;28;20398;-76
2023/03/06 00:50:10;;;;;;;2.55;1.90;;;;;;;-5.10;71.36;97860.06;4957034;28;20049;-76
2023/03/06 00:52:36;;;;;;;3.80;1.70;;;;;;;-5.08;71.40;97868.66;4974047;28;20046;-76
2023/03/06 00:55:02;;;;;;;2.35;1.88;;;;;;;-5.08;71.25;97860.84;4956812;28;20043;-75
2023/03/06 00:57:28;;;;;;;2.15;1.98;;;;;;;-5.15;71.07;97867.22;4974325;28;20039;-75
2023/03/06 00:59:56;;;;;;;2.72;1.90;;;;;;;-5.11;71.39;97879.22;4972914;28;20046;-76
2023/03/06 01:02:22;;;;;;;2.20;1.95;;;;;;;-5.09;71.20;97892.16;4973224;28;20513;-76
2023/03/06 01:04:47;;;;;;;3.65;1.73;;;;;;;-5.08;71.21;97893.84;4973106;28;20046;-77
2023/03/06 01:07:13;;;;;;;4.25;2.05;;;;;;;-5.15;71.37;97894.13;4973844;28;20045;-77
2023/03/06 01:09:40;;;;;;;2.15;1.95;;;;;;;-5.20;70.96;97890.84;4972983;28;20129;-75
2023/03/06 01:12:06;;;;;;;3.10;2.10;;;;;;;-5.19;70.98;97889.94;4973816;28;20039;-75
2023/03/06 01:14:33;;;;;;;2.85;1.90;;;;;;;-5.18;71.08;97893.41;4973128;28;20046;-77
2023/03/06 01:16:59;;;;;;;2.00;1.80;;;;;;;-5.25;70.98;97886.72;4972926;28;20521;-77
2023/03/06 01:19:25;;;;;;;2.55;2.15;;;;;;;-5.29;71.13;97893.81;4973375;28;20046;-76
2023/03/06 01:21:51;;;;;;;1.85;1.73;;;;;;;-5.28;70.93;97898.13;4974427;28;20058;-75
2023/03/06 01:24:17;;;;;;;2.58;1.70;;;;;;;-5.24;71.18;97904.91;4973790;28;20459;-75
2023/03/06 01:26:43;;;;;;;2.42;2.03;;;;;;;-5.26;71.14;97913.69;4973774;28;20398;-76
2023/03/06 01:29:08;;;;;;;4.40;1.92;;;;;;;-5.29;71.28;97917.25;4960227;28;20077;-76
2023/03/06 01:31:34;;;;;;;2.55;2.20;;;;;;;-5.34;71.29;97918.34;4978032;28;20137;-76
2023/03/06 01:34:00;;;;;;;1.70;1.60;;;;;;;-5.40;71.37;97914.22;4977916;28;20495;-77
2023/03/06 01:36:26;;;;;;;2.17;1.90;;;;;;;-5.29;71.33;97927.69;4978308;28;20043;-76
2023/03/06 01:38:52;;;;;;;3.65;2.00;;;;;;;-5.27;70.95;97933.66;4960633;28;20045;-77
2023/03/06 01:41:20;;;;;;;3.92;2.10;;;;;;;-5.32;71.00;97935.59;4976345;28;20059;-75
2023/03/06 01:43:46;;;;;;;2.20;2.00;;;;;;;-5.26;71.31;97937.13;4976502;28;20039;-76
2023/03/06 01:46:28;;;;;;;4.18;2.20;;;;;;;-5.26;71.24;97943.19;4960268;28;20047;-76
2023/03/06 01:48:56;;;;;;;2.20;2.00;;;;;;;-5.33;71.28;97948.69;4976001;28;20042;-77
2023/03/06 01:51:27;;;;;;;3.35;2.42;;;;;;;-5.33;71.13;97940.88;4960169;28;20039;-76
2023/03/06 01:53:54;;;;;;;1.92;1.83;;;;;;;-5.31;71.26;97945.09;4976249;28;20099;-76
2023/03/06 01:56:21;;;;;;;2.50;2.30;;;;;;;-5.32;71.28;97938.22;4976561;28;20129;-76
2023/03/06 01:58:48;;;;;;;2.60;2.40;;;;;;;-5.32;71.08;97933.00;4960282;28;20047;-77
2023/03/06 02:01:14;;;;;;;3.03;2.25;;;;;;;-5.38;71.20;97946.25;4975945;28;20057;-77
2023/03/06 02:03:42;;;;;;;4.05;2.00;;;;;;;-5.51;71.41;97942.44;4959779;28;20082;-77
2023/03/06 02:06:08;;;;;;;2.00;1.80;;;;;;;-5.50;71.24;97947.56;4976951;28;20057;-77
2023/03/06 02:08:34;;;;;;;4.72;2.30;;;;;;;-5.54;71.23;97952.94;4959950;28;20039;-78
2023/03/06 02:11:24;;;;;;;3.15;2.17;;;;;;;-5.58;71.24;97951.38;4960020;28;20039;-77
2023/03/06 02:13:51;;;;;;;2.75;2.05;;;;;;;-5.61;71.27;97958.38;4977030;28;20096;-77
2023/03/06 02:16:21;;;;;;;2.00;1.90;;;;;;;-5.61;71.31;97947.97;4959730;28;20049;-75
2023/03/06 02:18:49;;;;;;;2.60;2.03;;;;;;;-5.63;71.52;97955.00;4975771;28;20051;-76
2023/03/06 02:21:21;;;;;;;3.35;2.20;;;;;;;-5.63;71.56;97965.41;4975961;28;20458;-75
2023/03/06 02:24:13;;;;;;;2.22;1.90;;;;;;;-5.67;71.58;97957.78;4976653;28;20057;-77
2023/03/06 02:26:41;;;;;;;2.17;1.98;;;;;;;-5.73;71.48;97961.44;4943298;28;20051;-77
2023/03/06 02:29:08;;;;;;;7.18;2.42;;;;;;;-5.70;71.53;97976.09;4959495;28;20517;-76
2023/03/06 02:31:34;;;;;;;3.10;2.00;;;;;;;-5.71;71.70;97977.03;4959331;28;20050;-77
2023/03/06 02:34:06;;;;;;;2.85;2.30;;;;;;;-5.68;71.73;97988.16;4959238;28;20035;-76
2023/03/06 02:36:37;;;;;;;2.50;1.77;;;;;;;-5.75;71.70;97981.47;4958984;28;20505;-76
2023/03/06 02:39:04;;;;;;;2.50;2.15;;;;;;;-5.75;71.71;97991.06;4974742;28;20462;-77
2023/03/06 02:41:30;;;;;;;2.45;1.83;;;;;;;-5.75;71.89;98004.91;4974489;28;20062;-77
2023/03/06 02:43:56;;;;;;;2.80;2.03;;;;;;;-5.74;72.00;97995.34;4976118;28;20046;-76
2023/03/06 02:46:22;;;;;;;3.67;2.13;;;;;;;-5.72;71.95;97996.97;4958843;28;20046;-77
2023/03/06 02:48:48;;;;;;;3.70;2.40;;;;;;;-5.68;71.92;97997.69;4959015;28;20383;-78
2023/03/06 02:51:14;;;;;;;3.92;2.22;;;;;;;-5.70;72.18;97997.78;4975320;28;20043;-78
2023/03/06 02:53:40;;;;;;;6.40;2.17;;;;;;;-5.70;72.27;97984.75;4976223;28;20046;-77
2023/03/06 02:56:06;;;;;;;5.78;2.33;;;;;;;-5.70;71.93;97974.34;4975218;28;20051;-77
2023/03/06 02:58:32;;;;;;;5.22;2.50;;;;;;;-5.56;71.90;97996.44;4975116;28;20049;-75
2023/03/06 03:00:58;;;;;;;2.13;2.00;;;;;;;-5.50;71.93;98007.44;4958928;28;20046;-77
2023/03/06 03:03:25;;;;;;;3.83;2.65;;;;;;;-5.49;71.86;98006.56;4976251;28;20057;-77
2023/03/06 03:05:52;;;;;;;2.80;2.50;;;;;;;-5.40;71.66;98018.38;4974584;28;20050;-75
2023/03/06 03:08:27;;;;;;;2.45;2.22;;;;;;;-5.33;71.69;98019.00;4986694;28;20051;-76
2023/03/06 03:10:56;;;;;;;3.13;2.42;;;;;;;-5.31;71.42;98015.44;4989745;28;20093;-76
2023/03/06 03:13:23;;;;;;;4.25;3.10;;;;;;;-5.26;71.08;98028.31;4974853;28;20129;-76
2023/03/06 03:16:01;;;;;;;4.13;2.40;;;;;;;-5.24;71.19;98019.50;4974934;28;20053;-79
2023/03/06 03:18:27;;;;;;;3.35;2.60;;;;;;;-5.18;71.14;98029.69;4958665;28;20042;-78
2023/03/06 03:20:53;;;;;;;7.35;2.53;;;;;;;-5.15;70.88;98028.75;4958521;28;20061;-75
2023/03/06 03:23:19;;;;;;;4.18;2.05;;;;;;;-5.09;71.04;98030.25;4974622;28;20049;-79
2023/03/06 03:25:45;;;;;;;3.13;2.45;;;;;;;-5.04;70.76;98031.78;4974681;28;20042;-81
2023/03/06 03:28:12;;;;;;;13.18;3.38;;;;;;;-5.00;70.85;98028.16;4974964;28;20077;-77
2023/03/06 03:30:39;;;;;;;3.92;2.22;;;;;;;-4.90;71.01;98037.28;4958287;28;20453;-75
2023/03/06 03:33:05;;;;;;;5.88;2.65;;;;;;;-4.90;71.06;98039.06;4975531;28;20042;-75
2023/03/06 03:35:31;;;;;;;2.67;2.10;;;;;;;-4.89;71.11;98026.00;4958618;28;20047;-76
2023/03/06 03:37:58;;;;;;;6.07;2.83;;;;;;;-4.83;71.69;98039.69;4958542;28;20061;-77
2023/03/06 03:40:24;;;;;;;2.72;2.30;;;;;;;-4.68;71.30;98028.66;4973682;28;20073;-76
2023/03/06 03:42:50;;;;;;;2.58;2.03;;;;;;;-4.54;71.11;98035.94;4974424;28;20046;-75
2023/03/06 03:45:16;;;;;;;3.00;2.42;;;;;;;-4.45;70.79;98025.09;4974137;28;20465;-79
2023/03/06 03:47:43;;;;;;;2.28;2.08;;;;;;;-4.51;71.09;98030.59;4958414;28;20057;-76
2023/03/06 03:50:11;;;;;;;2.13;1.92;;;;;;;-4.42;71.14;98051.91;4957372;28;20053;-77
2023/03/06 03:52:37;;;;;;;2.22;2.03;;;;;;;-4.41;71.17;98047.53;4958232;28;20050;-75
2023/03/06 03:55:06;;;;;;;3.70;2.15;;;;;;;-4.35;71.25;98052.53;4957980;28;20565;-75
2023/03/06 03:57:32;;;;;;;3.35;2.17;;;;;;;-4.23;71.16;98056.38;4957746;28;20120;-76
2023/03/06 03:59:58;;;;;;;4.22;2.50;;;;;;;-4.12;71.02;98058.56;4973621;28;20109;-74
2023/03/06 04:02:45;;;;;;;4.05;2.60;;;;;;;-4.07;70.72;98062.66;4990106;28;20042;-78
2023/03/06 04:05:22;;;;;;;4.82;2.67;;;;;;;-3.87;71.02;98064.47;4964236;28;20095;-77
2023/03/06 04:07:48;;;;;;;4.38;2.28;;;;;;;-3.83;70.49;98070.41;4984773;28;20125;-75
2023/03/06 04:10:15;;;;;;;5.07;2.58;;;;;;;-3.76;70.72;98071.81;4974158;28;20070;-75
2023/03/06 04:12:41;;;;;;;2.45;2.22;;;;;;;-3.66;70.14;98079.19;4957855;28;20046;-76
2023/03/06 04:15:09;;;;;;;4.35;2.88;;;;;;;-3.30;70.20;98086.34;4973774;28;20137;-75
2023/03/06 04:17:36;;;;;;;3.10;2.67;;;;;;;-2.84;72.87;98083.44;4995360;28;20084;-75
2023/03/06 04:20:06;;;;;;;26.60;4.82;;;;;;;-2.67;69.38;98100.94;4995488;28;20053;-75
2023/03/06 04:22:33;;;;;;;4.43;2.50;;;;;;;-2.65;68.23;98092.09;4986556;28;20436;-75
2023/03/06 04:24:59;;;;;;;4.20;2.15;;;;;;;-2.56;68.03;98089.06;4962928;28;20092;-76
2023/03/06 04:27:25;;;;;;;3.38;2.50;;;;;;;-2.56;67.23;98082.97;5011421;28;20115;-75
2023/03/06 04:29:55;;;;;;;6.32;3.08;;;;;;;-2.30;67.15;98098.28;5011617;28;20066;-75
2023/03/06 04:32:21;;;;;;;;;;;;;;;-2.26;66.31;98109.44;4995337;28;20038;-75
2023/03/06 04:34:46;;;;;;;2.55;2.15;;;;;;;-2.32;66.22;98096.69;5011167;28;20304;-75
2023/03/06 04:37:19;;;;;;;2.55;2.33;;;;;;;-2.25;66.02;98098.94;4994894;28;20460;-75
2023/03/06 04:39:46;;;;;;;5.95;2.38;;;;;;;-2.21;65.95;98097.84;4994078;28;20060;-76
2023/03/06 04:42:12;;;;;;;3.85;2.60;;;;;;;-2.37;66.17;98099.53;4994584;28;20116;-76
2023/03/06 04:44:37;;;;;;;4.22;2.92;;;;;;;-2.26;66.48;98106.84;4994615;28;20530;-75
2023/03/06 04:47:03;;;;;;;3.85;2.72;;;;;;;-2.19;66.40;98103.00;5007336;28;20536;-75
2023/03/06 04:49:29;;;;;;;3.05;2.75;;;;;;;-2.29;65.94;98113.09;4975127;28;20492;-75
2023/03/06 04:51:55;;;;;;;3.10;2.55;;;;;;;-2.27;66.18;98116.47;4982763;28;20058;-76
2023/03/06 04:54:21;;;;;;;2.50;2.30;;;;;;;-2.35;66.14;98113.38;4994068;28;20093;-75
2023/03/06 04:56:47;;;;;;;2.97;2.30;;;;;;;-2.28;69.15;98121.78;4977959;28;20095;-90
2023/03/06 04:59:13;;;;;;;3.72;2.90;;;;;;;-2.04;68.33;98117.13;4999326;28;20042;-76
2023/03/06 05:01:39;;;;;;;2.92;2.65;;;;;;;-1.99;66.80;98136.09;4993870;28;20454;-75
2023/03/06 05:04:06;;;;;;;4.63;3.08;;;;;;;-2.22;66.58;98129.31;4992189;28;20509;-75
2023/03/06 05:06:32;;;;;;;4.38;3.03;;;;;;;-2.16;66.46;98143.91;5008947;28;20113;-76
2023/03/06 05:08:58;;;;;;;4.95;3.17;;;;;;;-2.24;66.20;98132.03;4975946;28;20529;-76
2023/03/06 05:11:24;;;;;;;2.70;2.47;;;;;;;-2.16;66.60;98133.44;4992804;28;20046;-76
2023/03/06 05:13:50;;;;;;;3.20;2.90;;;;;;;-2.17;66.49;98137.81;4992299;28;20123;-78
2023/03/06 05:16:16;;;;;;;3.42;2.88;;;;;;;-2.15;66.63;98135.97;4976083;28;20054;-75
2023/03/06 05:18:42;;;;;;;3.45;3.10;;;;;;;-2.15;66.85;98148.22;4992977;28;20057;-75
2023/03/06 05:21:08;;;;;;;3.92;2.88;;;;;;;-2.13;66.83;98157.69;4992141;28;20046;-76
2023/03/06 05:23:37;;;;;;;3.38;3.00;;;;;;;-2.03;66.47;98161.56;4976676;28;20073;-75
2023/03/06 05:26:11;;;;;;;4.30;3.15;;;;;;;-1.93;65.83;98161.97;4992368;28;20044;-76
2023/03/06 05:28:38;;;;;;;3.72;3.05;;;;;;;-2.01;66.15;98169.34;5008611;28;20170;-75
2023/03/06 05:31:04;;;;;;;6.00;3.67;;;;;;;-1.96;66.41;98162.09;4992188;28;20156;-77
2023/03/06 05:33:31;;;;;;;3.53;3.17;;;;;;;-1.91;65.75;98183.72;4993351;28;20482;-77
2023/03/06 05:35:57;;;;;;;4.47;3.33;;;;;;;-1.71;65.78;98177.50;4975430;28;20045;-74
2023/03/06 05:38:23;;;;;;;12.48;3.33;;;;;;;-1.59;65.27;98176.03;4993176;28;20050;-76
2023/03/06 05:40:49;;;;;;;4.35;3.20;;;;;;;-1.37;64.88;98187.13;4975306;28;20062;-76
2023/03/06 05:43:15;;;;;;;4.88;3.15;;;;;;;-0.97;69.04;98182.50;4992173;28;20042;-79
2023/03/06 05:45:41;;;;;;;5.63;3.10;;;;;;;-0.96;63.57;98176.31;4975698;28;20390;-75
2023/03/06 05:48:07;;;;;;;4.85;2.95;;;;;;;-0.89;63.12;98182.94;4991683;28;20046;-75
2023/03/06 05:50:33;;;;;;;6.90;3.10;;;;;;;-0.93;62.44;98186.66;4991537;28;20065;-75
2023/03/06 05:52:59;;;;;;;3.85;3.05;;;;;;;-0.93;63.22;98194.53;4993179;28;20042;-74
2023/03/06 05:55:25;;;;;;;4.55;3.22;;;;;;;-0.74;62.25;98205.75;4993100;28;20050;-75
2023/03/06 05:57:52;;;;;;;14.18;3.83;;;;;;;-0.63;61.98;98206.97;4991839;28;20038;-75
2023/03/06 06:00:18;;;;;;;7.82;3.20;;;;;;;-0.38;61.26;98215.22;4975732;28;20092;-76
2023/03/06 06:02:45;;;;;;;3.40;3.08;;;;;;;-0.31;60.92;98213.13;4992992;28;20367;-76
2023/03/06 06:05:14;;;;;;;3.97;2.95;;;;;;;-0.28;60.21;98211.16;4991679;28;20507;-75
2023/03/06 06:07:40;;;;;;;4.70;3.55;;;;;;;0.04;60.84;98224.34;4992178;28;20413;-75
2023/03/06 06:10:07;;;;;;;4.60;3.13;;;;;;;0.43;59.73;98223.03;4991370;28;20066;-75
2023/03/06 06:12:33;;;;;;;3.58;3.20;;;;;;;0.59;58.84;98215.94;4991771;28;20069;-74
2023/03/06 06:14:59;;;;;;;3.03;2.72;;;;;;;0.87;58.43;98227.53;4979108;28;20482;-76
2023/03/06 06:17:24;;;;;;;3.50;2.90;;;;;;;1.11;59.86;98233.13;4996523;28;20559;-76
2023/03/06 06:19:50;;;;;;;5.30;2.95;;;;;;;1.41;57.41;98225.16;4996285;28;20046;-76
2023/03/06 06:22:16;;;;;;;5.35;3.13;;;;;;;1.45;56.50;98229.28;4995146;28;20495;-77
2023/03/06 06:24:42;;;;;;;4.70;3.30;;;;;;;1.41;56.40;98225.16;5011302;28;20085;-75
2023/03/06 06:27:08;;;;;;;4.60;2.88;;;;;;;1.51;55.93;98239.47;4973140;28;20047;-75
2023/03/06 06:29:34;;;;;;;6.07;3.25;;;;;;;1.56;56.59;98240.03;4958510;28;20462;-76
2023/03/06 06:32:00;;;;;;;4.00;3.53;;;;;;;1.84;55.97;98246.22;4974904;28;20093;-77
2023/03/06 06:34:26;;;;;;;3.75;2.97;;;;;;;1.87;54.89;98236.34;4992829;28;20045;-78
2023/03/06 06:36:53;;;;;;;3.25;2.95;;;;;;;1.92;54.60;98251.88;4991264;28;20042;-80
2023/03/06 06:39:21;;;;;;;3.70;2.97;;;;;;;1.90;54.19;98256.41;4979085;28;20097;-77
2023/03/06 06:41:50;;;;;;;5.32;3.50;;;;;;;2.01;54.67;98247.81;4976624;28;20062;-76
2023/03/06 06:44:16;;;;;;;4.88;3.33;;;;;;;1.76;53.70;98254.59;4968017;28;20522;-79
2023/03/06 06:46:44;;;;;;;6.85;3.50;;;;;;;1.69;54.29;98256.78;4938820;29;20138;-77
2023/03/06 06:49:13;;;;;;;4.18;3.20;;;;;;;1.59;54.82;98262.72;4955532;28;20138;-79
2023/03/06 06:51:40;;;;;;;5.20;3.05;;;;;;;2.01;54.42;98258.38;4954529;29;20411;-78
2023/03/06 06:54:07;;;;;;;4.20;3.42;;;;;;;2.23;53.46;98257.88;4955567;29;20465;-78
2023/03/06 06:56:33;;;;;;;5.88;2.95;;;;;;;2.05;53.70;98255.44;4955690;29;20043;-79
2023/03/06 06:59:00;;;;;;;4.07;3.03;;;;;;;2.37;53.61;98265.72;4939527;29;20043;-79
2023/03/06 07:01:27;;;;;;;4.38;3.40;;;;;;;2.63;53.63;98256.13;4957280;28;20086;-77
2023/03/06 07:03:53;;;;;;;4.10;3.15;;;;;;;2.80;52.96;98258.53;4955678;29;20043;-79
2023/03/06 07:06:19;;;;;;;7.28;3.13;;;;;;;2.47;52.40;98269.47;4955131;29;20075;-77
2023/03/06 07:08:45;;;;;;;3.45;2.75;;;;;;;2.38;53.26;98272.72;4955395;29;20043;-78
2023/03/06 07:11:14;;;;;;;3.80;3.22;;;;;;;2.40;52.72;98260.25;4939343;29;20054;-78
2023/03/06 07:13:40;;;;;;;3.88;2.80;;;;;;;2.26;52.66;98273.47;4955486;29;20093;-77
2023/03/06 07:16:06;;;;;;;3.67;3.30;;;;;;;2.09;53.66;98262.19;4956729;28;20043;-76
2023/03/06 07:18:32;;;;;;;3.20;2.90;;;;;;;2.14;53.85;98267.19;4939458;29;20047;-76
2023/03/06 07:20:58;;;;;;;3.88;3.30;;;;;;;2.21;52.83;98270.28;4938899;29;20458;-75
2023/03/06 07:23:25;;;;;;;4.55;3.38;;;;;;;2.27;53.03;98270.75;4955204;29;20043;-76
2023/03/06 07:25:52;;;;;;;5.18;3.60;;;;;;;2.47;52.93;98276.53;4954186;28;20054;-77
2023/03/06 07:28:19;;;;;;;3.85;3.22;;;;;;;2.56;53.38;98287.34;4939058;29;20043;-75
2023/03/06 07:30:45;;;;;;;4.70;3.45;;;;;;;2.50;53.29;98287.75;4955455;29;20093;-77
2023/03/06 07:33:13;;;;;;;3.72;2.90;;;;;;;2.44;53.00;98288.13;4955572;29;20391;-79
2023/03/06 07:35:40;;;;;;;4.68;2.60;;;;;;;2.30;53.28;98285.53;4938510;29;20053;-77
2023/03/06 07:38:06;;;;;;;3.80;2.85;;;;;;;2.29;56.48;98284.66;4956176;28;20058;-76
2023/03/06 07:40:32;;;;;;;3.33;2.92;;;;;;;2.42;53.52;98296.16;4955844;28;20511;-76
2023/03/06 07:42:58;;;;;;;3.53;2.72;;;;;;;2.84;52.96;98296.13;4954844;29;20070;-76
2023/03/06 07:45:33;;;;;;;3.40;3.10;;;;;;;3.05;52.54;98300.00;4938713;29;20199;-76
2023/03/06 07:47:59;;;;;;;3.60;3.10;;;;;;;2.99;52.16;98300.38;4954177;29;20122;-77
2023/03/06 07:50:25;;;;;;;5.07;3.10;;;;;;;2.98;51.97;98303.16;4970037;28;20129;-76
2023/03/06 07:52:51;;;;;;;5.63;3.28;;;;;;;2.91;52.13;98302.69;4952086;28;20102;-77
2023/03/06 07:55:17;;;;;;;4.43;3.20;;;;;;;2.93;51.98;98313.97;4964182;28;20043;-77
2023/03/06 07:57:43;;;;;;;12.32;4.25;;;;;;;3.38;51.80;98318.00;4966695;28;20038;-77
2023/03/06 08:00:12;;;;;;;4.53;3.33;;;;;;;3.55;51.18;98314.25;4981786;28;20054;-78
2023/03/06 08:02:42;;;;;;;4.80;3.00;;;;;;;3.54;50.53;98323.13;4975043;28;20058;-77
2023/03/06 08:05:09;;;;;;;6.13;3.05;;;;;;;3.64;51.31;98318.88;4972718;28;20043;-76
2023/03/06 08:07:35;;;;;;;6.97;3.95;;;;;;;4.03;50.28;98313.63;4980570;28;20051;-77
2023/03/06 08:10:00;;;;;;;3.97;3.50;;;;;;;4.09;50.19;98314.03;4976069;28;20049;-78
2023/03/06 08:12:28;;;;;;;4.70;3.15;;;;;;;3.99;49.78;98317.44;4977499;28;20492;-77
2023/03/06 08:14:54;;;;;;;3.03;2.75;;;;;;;4.32;50.39;98315.03;4993740;28;20070;-77
2023/03/06 08:17:20;;;;;;;3.65;3.35;;;;;;;4.54;47.74;98322.31;4992886;28;20544;-76
2023/03/06 08:19:46;;;;;;;3.67;3.17;;;;;;;4.70;48.27;98321.19;4975554;28;20068;-77
2023/03/06 08:22:12;;;;;;;3.72;2.97;;;;;;;4.81;47.81;98315.97;4993380;28;20049;-76
2023/03/06 08:24:38;;;;;;;4.20;3.33;;;;;;;4.95;47.47;98322.91;5008912;28;20149;-77
2023/03/06 08:27:04;;;;;;;3.63;3.10;;;;;;;5.18;46.86;98323.88;4992344;28;20074;-76
2023/03/06 08:29:30;;;;;;;6.10;3.25;;;;;;;5.30;46.73;98326.47;4969417;28;20075;-78
2023/03/06 08:31:56;;;;;;;5.88;2.97;;;;;;;5.30;46.29;98317.63;4937825;29;20447;-75
2023/03/06 08:34:24;;;;;;;4.22;3.33;;;;;;;5.14;46.02;98317.09;4956430;28;20047;-77
2023/03/06 08:36:50;;;;;;;3.45;3.15;;;;;;;5.26;46.08;98318.84;4960276;28;20040;-76
2023/03/06 08:39:16;;;;;;;3.92;2.95;;;;;;;5.39;46.14;98313.47;4953071;29;20050;-78
2023/03/06 08:41:42;;;;;;;5.05;3.38;;;;;;;5.18;45.52;98318.56;4921740;29;20055;-76
2023/03/06 08:44:08;;;;;;;4.95;3.38;;;;;;;5.68;46.28;98321.84;4955133;28;20058;-78
2023/03/06 08:46:35;;;;;;;3.78;3.35;;;;;;;6.44;46.04;98325.72;4922154;29;20051;-77
2023/03/06 08:49:01;;;;;;;4.15;3.38;;;;;;;7.11;44.58;98330.03;4953729;29;20145;-76
2023/03/06 08:51:27;;;;;;;3.95;2.85;;;;;;;6.78;42.35;98331.81;4954503;29;20039;-75
2023/03/06 08:53:55;;;;;;;3.00;2.80;;;;;;;5.77;43.36;98323.81;4978567;28;20042;-76
2023/03/06 08:56:26;;;;;;;7.55;3.00;;;;;;;4.95;44.82;98326.41;4942980;28;20066;-77
2023/03/06 08:58:54;;;;;;;5.28;3.30;;;;;;;5.09;45.66;98320.09;4974361;28;20058;-77
2023/03/06 09:01:23;;;;;;;3.45;3.00;;;;;;;4.93;45.40;98330.97;4973399;28;20474;-79
2023/03/06 09:03:50;;;;;;;3.95;3.42;;;;;;;5.05;45.67;98324.78;4972822;28;20102;-80
2023/03/06 09:06:16;;;;;;;3.45;3.00;;;;;;;5.39;45.53;98327.56;4972477;28;20058;-77
2023/03/06 09:08:43;;;;;;;3.38;2.90;;;;;;;5.71;44.85;98322.47;4972587;28;20046;-77
2023/03/06 09:11:11;;;;;;;3.85;3.15;;;;;;;5.50;44.43;98334.72;4956552;28;20142;-77
2023/03/06 09:13:37;;;;;;;3.80;3.10;;;;;;;5.59;44.60;98329.53;4974059;28;20050;-77
2023/03/06 09:16:03;;;;;;;12.27;6.68;;;;;;;5.62;44.94;98323.19;4972768;28;20050;-78
2023/03/06 09:18:28;;;;;;;4.55;3.08;;;;;;;5.96;44.55;98326.78;4972908;28;20050;-77
2023/03/06 09:20:55;;;;;;;4.05;3.20;;;;;;;6.02;44.18;98321.00;4956459;28;20410;-78
2023/03/06 09:23:21;;;;;;;3.35;3.05;;;;;;;6.03;43.79;98328.00;4940707;28;20038;-78
2023/03/06 09:25:55;;;;;;;3.03;2.72;;;;;;;5.84;43.70;98317.09;4956571;28;20550;-76
2023/03/06 09:28:21;;;;;;;3.63;3.20;;;;;;;5.75;44.39;98323.06;4940752;28;20081;-77
2023/03/06 09:30:47;;;;;;;5.28;3.03;;;;;;;5.65;44.21;98324.75;4973868;28;20083;-77
2023/03/06 09:33:18;;;;;;;3.10;2.80;;;;;;;5.06;45.33;98323.81;4940507;28;20110;-77
2023/03/06 09:35:50;;;;;;;3.38;3.08;;;;;;;4.51;46.03;98330.44;4973597;28;20051;-77
2023/03/06 09:38:17;;;;;;;4.07;3.13;;;;;;;4.43;47.28;98326.66;4957041;28;20045;-78
2023/03/06 09:41:01;;;;;;;3.42;3.05;;;;;;;4.39;47.57;98334.81;4956258;28;20059;-76
2023/03/06 09:43:34;;;;;;;6.03;3.65;;;;;;;4.81;47.48;98331.84;4956600;28;20050;-77
2023/03/06 09:46:25;;;;;;;3.70;3.30;;;;;;;4.91;47.11;98338.19;4974209;28;20141;-76
2023/03/06 09:49:09;;;;;;;4.03;3.10;;;;;;;5.27;46.35;98333.78;4967850;28;20073;-77
2023/03/06 09:52:00;;;;;;;3.45;3.15;;;;;;;5.92;45.88;98340.34;4976433;28;20054;-76
2023/03/06 09:54:39;;;;;;;3.70;3.28;;;;;;;5.99;45.09;98337.16;4960395;28;20121;-77
2023/03/06 09:57:17;;;;;;;5.63;3.73;;;;;;;5.84;45.19;98340.94;4977478;28;20058;-77
2023/03/06 09:59:47;;;;;;;4.13;3.35;;;;;;;5.56;45.03;98345.69;4959999;28;20078;-76
2023/03/06 10:02:24;;;;;;;3.92;3.53;;;;;;;5.13;45.91;98341.91;4977255;28;20075;-76
2023/03/06 10:04:58;;;;;;;5.65;3.70;;;;;;;4.67;47.09;98342.63;4959977;28;20090;-76
2023/03/06 10:07:41;;;;;;;5.38;2.97;;;;;;;3.83;48.33;98344.06;4976072;28;20039;-76
2023/03/06 10:10:25;;;;;;;4.93;3.65;;;;;;;3.53;49.78;98358.41;4977234;28;20070;-77
2023/03/06 10:13:05;;;;;;;4.55;3.35;;;;;;;3.75;50.27;98351.69;4959737;28;20042;-76
2023/03/06 10:15:40;;;;;;;3.58;3.17;;;;;;;3.82;50.27;98353.78;4977145;28;20050;-76
2023/03/06 10:18:06;;;;;;;5.75;3.00;;;;;;;3.74;49.58;98361.41;4988849;28;20490;-78
2023/03/06 10:20:57;;;;;;;4.85;3.47;;;;;;;3.78;50.06;98356.75;4976088;28;20049;-76
2023/03/06 10:23:30;;;;;;;3.70;3.20;;;;;;;3.87;49.92;98366.69;4976987;28;20047;-77
2023/03/06 10:26:01;;;;;;;4.32;3.30;;;;;;;4.02;49.54;98365.63;4960375;28;20054;-76
2023/03/06 10:28:40;;;;;;;5.47;3.92;;;;;;;4.25;49.27;98363.19;4976460;28;20050;-77
2023/03/06 10:31:25;;;;;;;5.60;3.70;;;;;;;4.46;51.38;98353.75;4976320;28;20082;-78
2023/03/06 10:34:03;;;;;;;4.55;3.40;;;;;;;4.97;49.19;98352.78;4960263;28;20457;-77
2023/03/06 10:36:28;;;;;;;5.00;3.63;;;;;;;5.19;47.82;98349.38;4976066;28;20051;-76
2023/03/06 10:38:57;;;;;;;3.85;3.47;;;;;;;5.22;47.68;98352.66;4977149;28;20062;-77
2023/03/06 10:41:29;;;;;;;4.57;3.83;;;;;;;5.30;47.56;98355.59;4975431;28;20540;-76
2023/03/06 10:44:04;;;;;;;3.95;3.33;;;;;;;5.25;48.64;98356.91;4944169;28;20054;-81
2023/03/06 10:46:31;;;;;;;4.65;3.53;;;;;;;5.43;47.59;98355.53;4944662;28;20043;-76
2023/03/06 10:49:00;;;;;;;20.65;3.85;;;;;;;5.42;47.04;98359.16;4959309;28;20047;-76
2023/03/06 10:51:27;;;;;;;3.70;3.40;;;;;;;5.63;47.26;98355.84;4976296;28;20046;-76
2023/03/06 10:54:02;;;;;;;6.80;3.58;;;;;;;5.74;46.59;98363.81;4959834;28;20121;-76
2023/03/06 10:56:34;;;;;;;4.13;3.20;;;;;;;5.26;46.55;98351.47;4976685;28;20043;-78
2023/03/06 10:59:16;;;;;;;4.95;3.42;;;;;;;5.34;46.68;98357.06;4976186;28;20573;-76
2023/03/06 11:01:45;;;;;;;3.30;3.00;;;;;;;5.07;47.31;98364.38;4964860;28;20043;-76
2023/03/06 11:04:31;;;;;;;5.63;3.17;;;;;;;5.29;46.92;98353.06;4983979;28;20062;-76
2023/03/06 11:07:02;;;;;;;3.42;3.13;;;;;;;5.85;46.68;98355.88;4965918;28;20045;-76
2023/03/06 11:09:28;;;;;;;4.13;3.28;;;;;;;6.33;45.74;98372.50;4996023;28;20146;-76
2023/03/06 11:12:14;;;;;;;3.60;3.30;;;;;;;6.17;45.36;98371.16;4978131;28;20073;-77
2023/03/06 11:14:40;;;;;;;9.60;3.42;;;;;;;6.13;45.18;98372.34;4974622;28;20047;-75
2023/03/06 11:17:27;;;;;;;5.25;3.03;;;;;;;6.08;45.38;98370.91;4958731;28;20089;-76
2023/03/06 11:20:17;;;;;;;5.45;3.80;;;;;;;6.41;45.85;98379.03;4975751;28;20503;-77
2023/03/06 11:23:13;;;;;;;4.63;3.60;;;;;;;6.85;44.04;98361.41;4991121;28;20046;-77
2023/03/06 11:25:55;;;;;;;3.80;3.25;;;;;;;6.82;44.75;98371.28;4974699;28;20046;-75
2023/03/06 11:28:27;;;;;;;5.38;3.42;;;;;;;6.78;44.08;98374.31;4974930;28;20097;-76
2023/03/06 11:31:10;;;;;;;4.53;3.20;;;;;;;6.48;44.33;98372.28;4974471;28;20552;-77
2023/03/06 11:33:48;;;;;;;4.63;3.00;;;;;;;6.29;44.59;98372.88;4958419;28;20046;-77
2023/03/06 11:36:40;;;;;;;4.85;3.20;;;;;;;6.36;44.44;98382.06;4974469;28;20051;-75
2023/03/06 11:39:23;;;;;;;7.20;3.35;;;;;;;6.33;44.82;98383.13;4983572;28;20068;-76
2023/03/06 11:42:18;;;;;;;4.25;3.17;;;;;;;5.72;45.19;98379.00;4958240;28;20096;-75
2023/03/06 11:44:55;;;;;;;6.03;3.60;;;;;;;5.47;46.33;98378.19;4974774;28;20082;-76